Time,TemperatureF,DewpointF,PressureIn,WindDirection,WindDirectionDegrees,WindSpeedMPH,WindSpeedGustMPH,Humidity,HourlyPrecipIn,Conditions,Clouds,dailyrainin,SolarRadiationWatts/m^2,SoftwareType,DateUTC
2013-05-24 00:04:00,47.9,42.3,30.37,SE,126,0.0,0.0,81,0.00,CLR,,0.00,0.0,WeatherDisplay:10.37,2013-05-24 05:04:00,
2013-05-24 00:09:00,47.6,42.1,30.37,SE,127,0.1,1.2,81,0.00,CLR,,0.00,0.0,WeatherDisplay:10.37,2013-05-24 05:09:00,
2013-05-24 00:14:00,47.4,42.8,30.37,SE,128,0.0,0.0,84,0.00,CLR,,0.00,0.0,WeatherDisplay:10.37,2013-05-24 05:14:00,
2013-05-24 00:19:00,47.3,42.7,30.37,SE,128,0.0,0.0,84,0.00,CLR,,0.00,0.0,WeatherDisplay:10.37,2013-05-24 05:19:00,
2013-05-24 00:24:00,47.3,42.7,30.37,SE,128,0.2,1.2,84,0.00,CLR,,0.00,0.0,WeatherDisplay:10.37,2013-05-24 05:24:00,
2013-05-24 00:29:00,47.2,42.6,30.37,SE,128,0.0,0.0,84,0.00,CLR,,0.00,0.0,WeatherDisplay:10.37,2013-05-24 05:29:00,
2013-05-24 00:34:00,47.1,42.5,30.37,SE,128,0.0,1.2,84,0.00,CLR,,0.00,0.0,WeatherDisplay:10.37,2013-05-24 05:34:00,
2013-05-24 00:39:00,46.8,42.5,30.37,SE,133,0.3,1.2,85,0.00,CLR,,0.00,0.0,WeatherDisplay:10.37,2013-05-24 05:39:00,
2013-05-24 00:44:00,46.6,42.6,30.37,SE,134,0.0,0.0,86,0.00,CLR,,0.00,0.0,WeatherDisplay:10.37,2013-05-24 05:44:00,
2013-05-24 00:49:00,46.6,42.0,30.37,SE,134,0.0,0.0,84,0.00,CLR,,0.00,0.0,WeatherDisplay:10.37,2013-05-24 05:49:00,
2013-05-24 00:54:00,46.5,41.3,30.37,SE,134,0.0,0.0,82,0.00,CLR,,0.00,0.0,WeatherDisplay:10.37,2013-05-24 05:54:00,
2013-05-24 00:59:00,46.2,40.7,30.37,SE,134,0.0,0.0,81,0.00,CLR,,0.00,0.0,WeatherDisplay:10.37,2013-05-24 05:59:00,
2013-05-24 01:04:00,46.0,40.5,30.37,SE,134,0.0,0.0,81,0.00,CLR,,0.00,0.0,WeatherDisplay:10.37,2013-05-24 06:04:00,
2013-05-24 01:09:00,46.1,40.6,30.37,SE,134,0.2,1.2,81,0.00,CLR,,0.00,0.0,WeatherDisplay:10.37,2013-05-24 06:09:00,
2013-05-24 01:14:00,45.9,41.0,30.37,SE,134,0.0,0.0,83,0.00,CLR,,0.00,0.0,WeatherDisplay:10.37,2013-05-24 06:14:00,
2013-05-24 01:19:00,45.8,40.9,30.37,SE,134,0.0,0.0,83,0.00,CLR,,0.00,0.0,WeatherDisplay:10.37,2013-05-24 06:19:00,
2013-05-24 01:24:00,45.9,39.8,30.37,SE,134,0.0,0.0,79,0.00,CLR,,0.00,0.0,WeatherDisplay:10.37,2013-05-24 06:24:00,
2013-05-24 01:29:00,46.1,38.6,30.37,SE,134,0.0,0.0,75,0.00,CLR,,0.00,0.0,WeatherDisplay:10.37,2013-05-24 06:29:00,
2013-05-24 01:34:00,46.2,38.0,30.37,SE,134,0.0,0.0,73,0.00,CLR,,0.00,0.0,WeatherDisplay:10.37,2013-05-24 06:34:00,
2013-05-24 01:39:00,46.2,37.3,30.37,SE,134,0.1,1.2,71,0.00,CLR,,0.00,0.0,WeatherDisplay:10.37,2013-05-24 06:39:00,
2013-05-24 01:44:00,46.5,37.2,30.37,SE,134,0.0,2.3,70,0.00,CLR,,0.00,0.0,WeatherDisplay:10.37,2013-05-24 06:44:00,
2013-05-24 01:49:00,46.3,37.0,30.37,SE,135,0.3,1.2,70,0.00,CLR,,0.00,0.0,WeatherDisplay:10.37,2013-05-24 06:49:00,
2013-05-24 01:54:00,46.3,37.0,30.38,SE,135,0.0,2.3,70,0.00,CLR,,0.00,0.0,WeatherDisplay:10.37,2013-05-24 06:54:00,
2013-05-24 01:59:00,46.0,37.5,30.38,SE,135,0.0,0.0,72,0.00,CLR,,0.00,0.0,WeatherDisplay:10.37,2013-05-24 06:59:00,
2013-05-24 02:04:00,45.9,37.4,30.38,SE,135,0.1,1.2,72,0.00,CLR,,0.00,0.0,WeatherDisplay:10.37,2013-05-24 07:04:00,
2013-05-24 02:09:00,45.7,37.2,30.38,SE,135,0.0,0.0,72,0.00,CLR,,0.00,0.0,WeatherDisplay:10.37,2013-05-24 07:09:00,
2013-05-24 02:14:00,45.2,38.1,30.38,SE,144,0.0,0.0,76,0.00,CLR,,0.00,0.0,WeatherDisplay:10.37,2013-05-24 07:14:00,
2013-05-24 02:19:00,44.6,38.2,30.38,SE,144,0.0,0.0,78,0.00,CLR,,0.00,0.0,WeatherDisplay:10.37,2013-05-24 07:19:00,
2013-05-24 02:24:00,44.3,38.2,30.38,SE,144,0.0,0.0,79,0.00,CLR,,0.00,0.0,WeatherDisplay:10.37,2013-05-24 07:24:00,
2013-05-24 02:29:00,44.0,37.9,30.38,SE,144,0.0,0.0,79,0.00,CLR,,0.00,0.0,WeatherDisplay:10.37,2013-05-24 07:29:00,
2013-05-24 02:34:00,44.2,38.1,30.38,SE,144,0.0,0.0,79,0.00,CLR,,0.00,0.0,WeatherDisplay:10.37,2013-05-24 07:34:00,
2013-05-24 02:39:00,44.0,37.6,30.38,SE,144,0.1,1.2,78,0.00,CLR,,0.00,0.0,WeatherDisplay:10.37,2013-05-24 07:39:00,
2013-05-24 02:44:00,43.9,37.5,30.38,SSE,160,0.6,3.5,78,0.00,CLR,,0.00,0.0,WeatherDisplay:10.37,2013-05-24 07:44:00,
2013-05-24 02:49:00,44.1,37.0,30.38,SSE,160,0.8,2.0,76,0.00,CLR,,0.00,0.0,WeatherDisplay:10.37,2013-05-24 07:49:00,
2013-05-24 02:54:00,44.1,37.0,30.38,SSE,160,0.1,1.2,76,0.00,CLR,,0.00,0.0,WeatherDisplay:10.37,2013-05-24 07:54:00,
2013-05-24 02:59:00,43.9,37.2,30.38,SSE,160,0.0,0.0,77,0.00,CLR,,0.00,0.0,WeatherDisplay:10.37,2013-05-24 07:59:00,
2013-05-24 03:04:00,44.0,37.3,30.38,SSE,160,0.0,1.2,77,0.00,CLR,,0.00,0.0,WeatherDisplay:10.37,2013-05-24 08:04:00,
2013-05-24 03:09:00,43.8,37.4,30.38,SSE,160,0.0,0.0,78,0.00,CLR,,0.00,0.0,WeatherDisplay:10.37,2013-05-24 08:09:00,
2013-05-24 03:14:00,43.6,37.2,30.38,SSE,160,0.0,1.2,78,0.00,CLR,,0.00,0.0,WeatherDisplay:10.37,2013-05-24 08:14:00,
2013-05-24 03:19:00,43.6,36.9,30.37,SSE,160,0.4,1.2,77,0.00,CLR,,0.00,0.0,WeatherDisplay:10.37,2013-05-24 08:19:00,
2013-05-24 03:24:00,43.9,36.8,30.37,SSE,160,1.1,3.5,76,0.00,CLR,,0.00,0.0,WeatherDisplay:10.37,2013-05-24 08:24:00,
2013-05-24 03:29:00,43.8,36.4,30.37,SSE,157,1.4,3.5,75,0.00,CLR,,0.00,0.0,WeatherDisplay:10.37,2013-05-24 08:29:00,
2013-05-24 03:34:00,44.1,36.3,30.37,SSE,159,1.2,2.3,74,0.00,CLR,,0.00,0.0,WeatherDisplay:10.37,2013-05-24 08:34:00,
2013-05-24 03:39:00,44.2,36.4,30.37,SSE,161,0.9,3.5,74,0.00,CLR,,0.00,0.0,WeatherDisplay:10.37,2013-05-24 08:39:00,
2013-05-24 03:44:00,44.2,35.7,30.37,South,169,1.9,4.0,72,0.00,CLR,,0.00,0.0,WeatherDisplay:10.37,2013-05-24 08:44:00,
2013-05-24 03:49:00,44.4,35.6,30.37,SSE,154,1.5,3.5,71,0.00,CLR,,0.00,0.0,WeatherDisplay:10.37,2013-05-24 08:49:00,
2013-05-24 03:54:00,44.4,35.2,30.37,South,182,1.9,3.5,70,0.00,CLR,,0.00,0.0,WeatherDisplay:10.37,2013-05-24 08:54:00,
2013-05-24 03:59:00,44.4,35.2,30.37,South,176,1.3,3.5,70,0.00,CLR,,0.00,0.0,WeatherDisplay:10.37,2013-05-24 08:59:00,
2013-05-24 04:04:00,44.5,35.0,30.37,South,170,2.0,4.0,69,0.00,CLR,,0.00,0.0,WeatherDisplay:10.37,2013-05-24 09:04:00,
2013-05-24 04:09:00,44.5,35.0,30.37,South,184,1.2,4.6,69,0.00,CLR,,0.00,0.0,WeatherDisplay:10.37,2013-05-24 09:09:00,
2013-05-24 04:14:00,44.3,34.8,30.37,SSE,159,1.0,3.5,69,0.00,CLR,,0.00,0.0,WeatherDisplay:10.37,2013-05-24 09:14:00,
2013-05-24 04:19:00,44.2,34.7,30.37,South,169,1.5,3.5,69,0.00,CLR,,0.00,0.0,WeatherDisplay:10.37,2013-05-24 09:19:00,
2013-05-24 04:24:00,44.1,34.6,30.37,South,172,2.5,3.5,69,0.00,CLR,,0.00,0.0,WeatherDisplay:10.37,2013-05-24 09:24:00,
2013-05-24 04:29:00,44.0,34.5,30.37,SSW,209,1.2,3.5,69,0.00,CLR,,0.00,0.0,WeatherDisplay:10.37,2013-05-24 09:29:00,
2013-05-24 04:34:00,43.9,34.4,30.37,SSW,209,2.6,4.0,69,0.00,CLR,,0.00,0.0,WeatherDisplay:10.37,2013-05-24 09:34:00,
2013-05-24 04:39:00,43.6,34.5,30.37,SSW,207,1.7,3.5,70,0.00,CLR,,0.00,0.0,WeatherDisplay:10.37,2013-05-24 09:39:00,
2013-05-24 04:45:00,43.5,34.4,30.38,SSW,207,1.4,3.5,70,0.00,CLR,,0.00,0.0,WeatherDisplay:10.37,2013-05-24 09:45:00,
2013-05-24 04:50:00,43.6,34.5,30.38,SSW,203,2.0,4.0,70,0.00,CLR,CLR,0.00,0.0,WeatherDisplay:10.37,2013-05-24 09:50:00,
2013-05-24 04:55:00,43.3,34.2,30.38,SSW,205,2.0,3.0,70,0.00,CLR,CLR,0.00,0.0,WeatherDisplay:10.37,2013-05-24 09:55:00,
2013-05-24 05:00:00,43.2,34.1,30.38,SSW,203,1.0,4.0,70,0.00,CLR,CLR,0.00,0.0,WeatherDisplay:10.37,2013-05-24 10:00:00,
2013-05-24 05:05:00,42.8,34.4,30.38,SSW,202,0.0,2.0,72,0.00,CLR,CLR,0.00,0.0,WeatherDisplay:10.37,2013-05-24 10:05:00,
2013-05-24 05:10:00,42.7,34.6,30.38,SSW,202,0.0,2.0,73,0.00,CLR,CLR,0.00,0.0,WeatherDisplay:10.37,2013-05-24 10:10:00,
2013-05-24 05:15:00,42.6,34.2,30.38,SSW,202,1.0,2.0,72,0.00,CLR,CLR,0.00,0.0,WeatherDisplay:10.37,2013-05-24 10:15:00,
2013-05-24 05:20:00,42.9,33.8,30.38,SSE,162,1.0,5.0,70,0.00,CLR,CLR,0.00,0.0,WeatherDisplay:10.37,2013-05-24 10:20:00,
2013-05-24 05:25:00,42.7,33.9,30.38,SSE,161,0.0,2.0,71,0.00,CLR,CLR,0.00,0.0,WeatherDisplay:10.37,2013-05-24 10:25:00,
2013-05-24 05:30:00,42.8,33.7,30.39,South,182,2.0,4.0,70,0.00,CLR,CLR,0.00,0.0,WeatherDisplay:10.37,2013-05-24 10:30:00,
2013-05-24 05:35:00,42.8,34.0,30.39,South,188,1.0,3.0,71,0.00,CLR,CLR,0.00,5.0,WeatherDisplay:10.37,2013-05-24 10:35:00,
2013-05-24 05:40:00,42.5,34.1,30.39,South,180,2.0,5.0,72,0.00,CLR,CLR,0.00,7.0,WeatherDisplay:10.37,2013-05-24 10:40:00,
2013-05-24 05:45:00,42.7,33.9,30.39,SSE,165,1.0,5.0,71,0.00,CLR,CLR,0.00,9.0,WeatherDisplay:10.37,2013-05-24 10:45:00,
2013-05-24 05:50:00,42.7,34.0,30.39,SSE,164,1.0,3.0,71,0.00,CLR,CLR,0.00,11.0,WeatherDisplay:10.37,2013-05-24 10:50:00,
2013-05-24 05:55:00,42.6,33.9,30.39,SSE,161,1.0,3.0,71,0.00,CLR,CLR,0.00,12.0,WeatherDisplay:10.37,2013-05-24 10:55:00,
2013-05-24 06:00:00,42.0,34.0,30.39,SSE,156,1.0,2.0,73,0.00,CLR,CLR,0.00,14.0,WeatherDisplay:10.37,2013-05-24 11:00:00,
2013-05-24 06:05:00,41.9,34.2,30.39,SSE,162,1.0,3.0,74,0.00,CLR,CLR,0.00,16.0,WeatherDisplay:10.37,2013-05-24 11:05:00,
2013-05-24 06:10:00,42.3,34.2,30.39,SSE,167,2.0,5.0,73,0.00,CLR,CLR,0.00,19.0,WeatherDisplay:10.37,2013-05-24 11:10:00,
2013-05-24 06:15:00,42.4,34.0,30.39,South,170,2.0,6.0,72,0.00,CLR,CLR,0.00,21.0,WeatherDisplay:10.37,2013-05-24 11:15:00,
2013-05-24 06:20:00,42.7,34.3,30.39,South,172,2.0,7.0,72,0.00,CLR,CLR,0.00,23.0,WeatherDisplay:10.37,2013-05-24 11:20:00,
2013-05-24 06:25:00,43.0,34.2,30.40,South,170,2.0,5.0,71,0.00,CLR,CLR,0.00,23.0,WeatherDisplay:10.37,2013-05-24 11:25:00,
2013-05-24 06:30:00,43.0,34.6,30.40,SSE,165,1.0,4.0,72,0.00,CLR,CLR,0.00,35.0,WeatherDisplay:10.37,2013-05-24 11:30:00,
2013-05-24 06:35:00,43.2,34.8,30.40,SSE,165,1.0,5.0,72,0.00,CLR,CLR,0.00,40.0,WeatherDisplay:10.37,2013-05-24 11:35:00,
2013-05-24 06:40:00,43.3,34.9,30.39,South,171,1.0,5.0,72,0.00,CLR,CLR,0.00,37.0,WeatherDisplay:10.37,2013-05-24 11:40:00,
2013-05-24 06:45:00,43.6,34.8,30.39,South,175,1.0,4.0,71,0.00,CLR,CLR,0.00,40.0,WeatherDisplay:10.37,2013-05-24 11:45:00,
2013-05-24 06:50:00,43.9,34.8,30.39,South,170,1.0,5.0,70,0.00,CLR,CLR,0.00,79.0,WeatherDisplay:10.37,2013-05-24 11:50:00,
2013-05-24 06:55:00,44.4,34.1,30.39,South,169,3.0,8.0,67,0.00,CLR,CLR,0.00,137.0,WeatherDisplay:10.37,2013-05-24 11:55:00,
2013-05-24 07:00:00,44.9,34.9,30.39,South,172,2.0,6.0,68,0.00,CLR,CLR,0.00,155.0,WeatherDisplay:10.37,2013-05-24 12:00:00,
2013-05-24 07:05:00,45.4,35.1,30.40,SSE,164,2.0,6.0,67,0.00,CLR,CLR,0.00,172.0,WeatherDisplay:10.37,2013-05-24 12:05:00,
2013-05-24 07:10:00,45.8,35.1,30.39,SSE,162,2.0,5.0,66,0.00,CLR,CLR,0.00,190.0,WeatherDisplay:10.37,2013-05-24 12:10:00,
2013-05-24 07:15:00,46.3,35.2,30.40,South,170,2.0,8.0,65,0.00,CLR,CLR,0.00,209.0,WeatherDisplay:10.37,2013-05-24 12:15:00,
2013-05-24 07:20:00,46.5,35.8,30.39,South,174,2.0,4.0,66,0.00,CLR,CLR,0.00,225.0,WeatherDisplay:10.37,2013-05-24 12:20:00,
2013-05-24 07:25:00,46.8,34.8,30.39,South,175,2.0,7.0,63,0.00,CLR,CLR,0.00,239.0,WeatherDisplay:10.37,2013-05-24 12:25:00,
2013-05-24 07:30:00,47.1,36.0,30.39,South,172,1.0,6.0,65,0.00,CLR,CLR,0.00,255.0,WeatherDisplay:10.37,2013-05-24 12:30:00,
2013-05-24 07:35:00,47.5,35.5,30.39,SSE,167,2.0,5.0,63,0.00,CLR,,0.00,267.0,WeatherDisplay:10.37,2013-05-24 12:35:00,
2013-05-24 07:40:00,47.9,35.5,30.39,South,187,3.3,6.0,62,0.00,CLR,,0.00,285.0,WeatherDisplay:10.37,2013-05-24 12:40:00,
2013-05-24 07:45:00,48.2,36.2,30.39,SSW,196,2.7,4.0,63,0.00,CLR,,0.00,297.0,WeatherDisplay:10.37,2013-05-24 12:45:00,
2013-05-24 07:50:00,48.5,36.1,30.39,SSW,205,2.5,4.0,62,0.00,CLR,,0.00,316.0,WeatherDisplay:10.37,2013-05-24 12:50:00,
2013-05-24 07:55:00,48.8,35.9,30.39,South,171,2.4,5.8,61,0.00,CLR,,0.00,330.0,WeatherDisplay:10.37,2013-05-24 12:55:00,
2013-05-24 08:00:00,49.2,36.3,30.39,SE,132,2.9,8.0,61,0.00,CLR,,0.00,348.0,WeatherDisplay:10.37,2013-05-24 13:00:00,
2013-05-24 08:05:00,49.6,36.3,30.39,SSW,196,4.8,7.0,60,0.00,CLR,,0.00,366.0,WeatherDisplay:10.37,2013-05-24 13:05:00,
2013-05-24 08:10:00,50.0,35.8,30.39,South,184,4.4,8.1,58,0.00,CLR,,0.00,385.0,WeatherDisplay:10.37,2013-05-24 13:10:00,
2013-05-24 08:15:00,50.4,36.2,30.39,South,182,4.1,7.0,58,0.00,CLR,,0.00,399.0,WeatherDisplay:10.37,2013-05-24 13:15:00,
2013-05-24 08:20:00,50.9,37.1,30.40,SSE,164,1.5,4.0,59,0.00,CLR,,0.00,413.0,WeatherDisplay:10.37,2013-05-24 13:20:00,
2013-05-24 08:25:00,51.3,37.0,30.40,SSE,166,3.5,6.0,58,0.00,CLR,,0.00,432.0,WeatherDisplay:10.37,2013-05-24 13:25:00,
2013-05-24 08:30:00,51.7,37.4,30.40,SSW,211,2.2,5.0,58,0.00,CLR,,0.00,410.0,WeatherDisplay:10.37,2013-05-24 13:30:00,
2013-05-24 08:35:00,51.9,37.1,30.40,SSE,164,2.8,8.0,57,0.00,CLR,,0.00,425.0,WeatherDisplay:10.37,2013-05-24 13:35:00,
2013-05-24 08:40:00,52.1,37.3,30.39,SSE,168,4.0,6.9,57,0.00,CLR,,0.00,425.0,WeatherDisplay:10.37,2013-05-24 13:40:00,
2013-05-24 08:45:00,52.3,38.0,30.39,South,186,4.1,6.0,58,0.00,CLR,,0.00,483.0,WeatherDisplay:10.37,2013-05-24 13:45:00,
2013-05-24 08:50:00,52.9,38.1,30.39,South,175,1.2,3.5,57,0.00,CLR,,0.00,476.0,WeatherDisplay:10.37,2013-05-24 13:50:00,
2013-05-24 08:55:00,53.5,37.7,30.39,South,181,5.4,7.0,55,0.00,CLR,,0.00,543.0,WeatherDisplay:10.37,2013-05-24 13:55:00,
2013-05-24 09:00:00,53.8,38.0,30.39,South,190,2.6,8.1,55,0.00,CLR,,0.00,517.0,WeatherDisplay:10.37,2013-05-24 14:00:00,
2013-05-24 09:05:00,54.0,37.2,30.39,ESE,110,4.1,10.4,53,0.00,CLR,,0.00,515.0,WeatherDisplay:10.37,2013-05-24 14:05:00,
2013-05-24 09:10:00,53.9,36.7,30.39,South,180,5.2,7.0,52,0.00,CLR,,0.00,540.0,WeatherDisplay:10.37,2013-05-24 14:10:00,
2013-05-24 09:15:00,54.5,37.2,30.39,South,181,4.4,9.2,52,0.00,CLR,,0.00,571.0,WeatherDisplay:10.37,2013-05-24 14:15:00,
2013-05-24 09:20:00,54.9,36.6,30.38,South,181,6.0,9.2,50,0.00,CLR,,0.00,573.0,WeatherDisplay:10.37,2013-05-24 14:20:00,
2013-05-24 09:25:00,55.2,36.4,30.38,SW,217,3.6,6.0,49,0.00,CLR,,0.00,613.0,WeatherDisplay:10.37,2013-05-24 14:25:00,
2013-05-24 09:30:00,56.1,36.1,30.38,SSW,200,3.3,5.0,47,0.00,CLR,,0.00,555.0,WeatherDisplay:10.37,2013-05-24 14:30:00,
2013-05-24 09:35:00,56.5,37.0,30.38,WSW,251,2.6,5.0,48,0.00,CLR,,0.00,554.0,WeatherDisplay:10.37,2013-05-24 14:35:00,
2013-05-24 09:40:00,56.4,35.9,30.38,SW,232,5.0,7.0,46,0.00,CLR,,0.00,601.0,WeatherDisplay:10.37,2013-05-24 14:40:00,
2013-05-24 09:45:00,56.9,36.9,30.38,SSE,157,4.0,8.1,47,0.00,CLR,,0.00,642.0,WeatherDisplay:10.37,2013-05-24 14:45:00,
2013-05-24 09:50:00,57.8,36.6,30.38,South,186,4.7,10.4,45,0.00,CLR,,0.00,645.0,WeatherDisplay:10.37,2013-05-24 14:50:00,
2013-05-24 09:55:00,57.7,36.5,30.38,ENE,73,5.3,8.1,45,0.00,CLR,,0.00,582.0,WeatherDisplay:10.37,2013-05-24 14:55:00,
2013-05-24 10:00:00,57.7,35.9,30.37,SW,219,2.6,4.6,44,0.00,CLR,,0.00,638.0,WeatherDisplay:10.37,2013-05-24 15:00:00,
2013-05-24 10:05:00,58.2,36.4,30.37,SSW,207,3.3,6.0,44,0.00,CLR,,0.00,682.0,WeatherDisplay:10.37,2013-05-24 15:05:00,
2013-05-24 10:10:00,58.7,37.4,30.37,SSE,167,2.4,5.0,45,0.00,CLR,,0.00,682.0,WeatherDisplay:10.37,2013-05-24 15:10:00,
2013-05-24 10:15:00,59.0,37.1,30.38,SSE,152,7.3,12.0,44,0.00,CLR,,0.00,663.0,WeatherDisplay:10.37,2013-05-24 15:15:00,
2013-05-24 10:20:00,58.4,36.6,30.38,South,191,3.9,8.1,44,0.00,CLR,,0.00,708.0,WeatherDisplay:10.37,2013-05-24 15:20:00,
2013-05-24 10:25:00,58.6,36.7,30.37,South,178,2.4,5.0,44,0.00,CLR,,0.00,561.0,WeatherDisplay:10.37,2013-05-24 15:25:00,
2013-05-24 10:30:00,59.4,37.5,30.37,SSW,196,4.3,7.0,44,0.00,CLR,,0.00,758.0,WeatherDisplay:10.37,2013-05-24 15:30:00,
2013-05-24 10:35:00,59.9,39.1,30.37,SE,128,1.5,5.0,46,0.00,CLR,,0.00,744.0,WeatherDisplay:10.37,2013-05-24 15:35:00,
2013-05-24 10:40:00,60.3,36.5,30.37,ESE,113,4.6,9.2,41,0.00,CLR,,0.00,786.0,WeatherDisplay:10.37,2013-05-24 15:40:00,
2013-05-24 10:45:00,60.5,36.7,30.37,South,172,3.0,8.1,41,0.00,CLR,,0.00,575.0,WeatherDisplay:10.37,2013-05-24 15:45:00,
2013-05-24 10:50:00,60.0,35.6,30.36,South,175,3.5,5.0,40,0.00,CLR,,0.00,422.0,WeatherDisplay:10.37,2013-05-24 15:50:00,
2013-05-24 10:55:00,59.7,36.6,30.36,South,170,3.6,7.0,42,0.00,CLR,,0.00,726.0,WeatherDisplay:10.37,2013-05-24 15:55:00,
2013-05-24 11:00:00,60.5,36.7,30.36,SSE,161,4.7,10.4,41,0.00,CLR,,0.00,826.0,WeatherDisplay:10.37,2013-05-24 16:00:00,
2013-05-24 11:05:00,60.8,36.3,30.37,South,182,2.8,6.0,40,0.00,CLR,,0.00,564.0,WeatherDisplay:10.37,2013-05-24 16:05:00,
2013-05-24 11:10:00,61.1,37.8,30.37,South,183,2.9,6.0,42,0.00,CLR,,0.00,659.0,WeatherDisplay:10.37,2013-05-24 16:10:00,
2013-05-24 11:15:00,61.8,37.2,30.37,South,188,4.8,8.0,40,0.00,CLR,,0.00,849.0,WeatherDisplay:10.37,2013-05-24 16:15:00,
2013-05-24 11:20:00,61.2,35.4,30.37,South,182,6.7,12.0,38,0.00,CLR,,0.00,536.0,WeatherDisplay:10.37,2013-05-24 16:20:00,
2013-05-24 11:25:00,61.1,37.2,30.37,South,181,4.7,9.0,41,0.00,CLR,,0.00,872.0,WeatherDisplay:10.37,2013-05-24 16:25:00,
2013-05-24 11:31:00,62.0,38.6,30.36,SSE,152,4.1,7.0,42,0.00,CLR,,0.00,868.0,WeatherDisplay:10.37,2013-05-24 16:31:00,
2013-05-24 11:36:00,62.4,36.4,30.36,SSW,202,5.9,8.1,38,0.00,CLR,,0.00,891.0,WeatherDisplay:10.37,2013-05-24 16:36:00,
2013-05-24 11:41:00,62.8,37.5,30.36,SSE,163,1.8,8.1,39,0.00,CLR,,0.00,983.0,WeatherDisplay:10.37,2013-05-24 16:41:00,
2013-05-24 11:46:00,63.5,37.4,30.36,South,170,4.6,8.1,38,0.00,CLR,,0.00,1007.0,WeatherDisplay:10.37,2013-05-24 16:46:00,
2013-05-24 11:51:00,63.2,35.8,30.36,SSW,196,4.6,11.5,36,0.00,CLR,,0.00,905.0,WeatherDisplay:10.37,2013-05-24 16:51:00,
2013-05-24 11:56:00,62.9,37.5,30.35,SSE,159,1.5,8.1,39,0.00,CLR,,0.00,367.0,WeatherDisplay:10.37,2013-05-24 16:56:00,
2013-05-24 12:01:00,63.1,37.1,30.35,SW,236,1.9,5.0,38,0.00,CLR,,0.00,643.0,WeatherDisplay:10.37,2013-05-24 17:01:00,
2013-05-24 12:06:00,63.7,36.2,30.35,South,179,3.8,10.4,36,0.00,CLR,,0.00,919.0,WeatherDisplay:10.37,2013-05-24 17:06:00,
2013-05-24 12:11:00,63.8,36.3,30.35,SSE,163,10.0,15.0,36,0.00,CLR,,0.00,1046.0,WeatherDisplay:10.37,2013-05-24 17:11:00,
2013-05-24 12:16:00,63.6,38.8,30.35,South,173,6.1,11.5,40,0.00,CLR,,0.00,1056.0,WeatherDisplay:10.37,2013-05-24 17:16:00,
2013-05-24 12:21:00,63.4,36.7,30.35,South,187,2.7,4.6,37,0.00,CLR,,0.00,1056.0,WeatherDisplay:10.37,2013-05-24 17:21:00,
2013-05-24 12:26:00,63.5,38.1,30.34,SSW,209,4.1,6.9,39,0.00,CLR,,0.00,258.0,WeatherDisplay:10.37,2013-05-24 17:26:00,
2013-05-24 12:31:00,62.6,35.9,30.34,SSW,194,3.9,8.1,37,0.00,CLR,,0.00,635.0,WeatherDisplay:10.37,2013-05-24 17:31:00,
2013-05-24 12:36:00,63.8,37.7,30.34,SW,215,4.3,8.0,38,0.00,CLR,,0.00,1069.0,WeatherDisplay:10.37,2013-05-24 17:36:00,
2013-05-24 12:41:00,65.0,37.4,30.33,SSE,167,6.2,10.4,36,0.00,CLR,,0.00,960.0,WeatherDisplay:10.37,2013-05-24 17:41:00,
2013-05-24 12:46:00,65.1,37.5,30.33,West,265,3.0,6.0,36,0.00,CLR,,0.00,963.0,WeatherDisplay:10.37,2013-05-24 17:46:00,
2013-05-24 12:51:00,65.5,38.5,30.33,WSW,246,5.3,10.4,37,0.00,CLR,,0.00,1007.0,WeatherDisplay:10.37,2013-05-24 17:51:00,
2013-05-24 12:56:00,66.1,37.6,30.33,SSW,202,4.4,8.1,35,0.00,CLR,,0.00,1018.0,WeatherDisplay:10.37,2013-05-24 17:56:00,
2013-05-24 13:01:00,66.2,38.4,30.33,NE,52,4.5,7.0,36,0.00,CLR,,0.00,984.0,WeatherDisplay:10.37,2013-05-24 18:01:00,
2013-05-24 13:06:00,66.6,38.1,30.33,South,180,4.0,7.0,35,0.00,CLR,,0.00,1007.0,WeatherDisplay:10.37,2013-05-24 18:06:00,
2013-05-24 13:11:00,65.9,38.2,30.32,SSE,159,4.1,9.2,36,0.00,CLR,,0.00,322.0,WeatherDisplay:10.37,2013-05-24 18:11:00,
2013-05-24 13:16:00,65.1,37.5,30.32,East,91,1.1,3.5,36,0.00,CLR,,0.00,383.0,WeatherDisplay:10.37,2013-05-24 18:16:00,
2013-05-24 13:21:00,65.1,37.5,30.32,SSE,165,2.8,8.1,36,0.00,CLR,,0.00,1023.0,WeatherDisplay:10.37,2013-05-24 18:21:00,
2013-05-24 13:26:00,66.6,39.5,30.31,SSW,199,3.5,8.1,37,0.00,CLR,,0.00,974.0,WeatherDisplay:10.37,2013-05-24 18:26:00,
2013-05-24 13:31:00,67.4,35.7,30.31,South,175,6.4,11.5,31,0.00,CLR,,0.00,969.0,WeatherDisplay:10.37,2013-05-24 18:31:00,
2013-05-24 13:36:00,66.8,36.8,30.31,South,173,4.2,8.1,33,0.00,CLR,,0.00,851.0,WeatherDisplay:10.37,2013-05-24 18:36:00,
2013-05-24 13:41:00,67.1,37.0,30.31,East,83,4.2,8.1,33,0.00,CLR,,0.00,782.0,WeatherDisplay:10.37,2013-05-24 18:41:00,
2013-05-24 13:46:00,67.3,38.7,30.31,SSE,165,9.2,16.1,35,0.00,CLR,,0.00,652.0,WeatherDisplay:10.37,2013-05-24 18:46:00,
2013-05-24 13:51:00,65.9,36.7,30.31,South,182,4.4,11.5,34,0.00,CLR,,0.00,559.0,WeatherDisplay:10.37,2013-05-24 18:51:00,
2013-05-24 13:56:00,65.7,36.5,30.30,WSW,243,6.9,13.0,34,0.00,CLR,,0.00,468.0,WeatherDisplay:10.37,2013-05-24 18:56:00,
2013-05-24 14:01:00,65.7,36.5,30.30,SSE,165,6.0,9.0,34,0.00,CLR,,0.00,417.0,WeatherDisplay:10.37,2013-05-24 19:01:00,
2013-05-24 14:06:00,66.0,36.1,30.29,SSE,161,7.2,13.0,33,0.00,CLR,,0.00,1005.0,WeatherDisplay:10.37,2013-05-24 19:06:00,
2013-05-24 14:11:00,66.7,37.4,30.29,South,186,8.1,16.0,34,0.00,CLR,,0.00,969.0,WeatherDisplay:10.37,2013-05-24 19:11:00,
2013-05-24 14:16:00,66.6,37.3,30.29,South,187,10.4,19.6,34,0.00,CLR,,0.00,1053.0,WeatherDisplay:10.37,2013-05-24 19:16:00,
2013-05-24 14:21:00,66.3,37.8,30.28,NE,35,4.3,8.1,35,0.00,CLR,,0.00,1053.0,WeatherDisplay:10.37,2013-05-24 19:21:00,
2013-05-24 14:26:00,67.3,38.0,30.28,South,183,6.6,11.5,34,0.00,CLR,,0.00,315.0,WeatherDisplay:10.37,2013-05-24 19:26:00,
2013-05-24 14:31:00,67.5,38.1,30.28,SSE,166,4.3,6.0,34,0.00,CLR,,0.00,986.0,WeatherDisplay:10.37,2013-05-24 19:31:00,
2013-05-24 14:36:00,67.0,38.4,30.28,South,177,2.3,6.0,35,0.00,CLR,,0.00,352.0,WeatherDisplay:10.37,2013-05-24 19:36:00,
2013-05-24 14:41:00,66.5,39.4,30.28,SSE,162,3.2,5.0,37,0.00,CLR,,0.00,789.0,WeatherDisplay:10.37,2013-05-24 19:41:00,
2013-05-24 14:46:00,66.8,38.3,30.28,SW,217,4.4,8.1,35,0.00,CLR,,0.00,1206.0,WeatherDisplay:10.37,2013-05-24 19:46:00,
2013-05-24 14:51:00,66.8,39.0,30.28,NW,321,4.0,7.0,36,0.00,CLR,,0.00,436.0,WeatherDisplay:10.37,2013-05-24 19:51:00,
2013-05-24 14:56:00,66.5,40.1,30.28,SSW,210,2.0,7.0,38,0.00,CLR,,0.00,243.0,WeatherDisplay:10.37,2013-05-24 19:56:00,
2013-05-24 15:01:00,65.9,40.2,30.28,South,171,2.4,6.9,39,0.00,CLR,,0.00,243.0,WeatherDisplay:10.37,2013-05-24 20:01:00,
2013-05-24 15:06:00,65.6,40.6,30.28,SSW,200,3.8,8.0,40,0.00,CLR,,0.00,339.0,WeatherDisplay:10.37,2013-05-24 20:06:00,
2013-05-24 15:11:00,65.9,40.9,30.28,South,170,4.0,8.1,40,0.00,CLR,,0.00,311.0,WeatherDisplay:10.37,2013-05-24 20:11:00,
2013-05-24 15:16:00,65.8,40.8,30.28,South,178,5.3,11.0,40,0.00,CLR,,0.00,265.0,WeatherDisplay:10.37,2013-05-24 20:16:00,
2013-05-24 15:21:00,65.4,41.1,30.27,SSE,167,5.0,9.2,41,0.00,CLR,,0.00,338.0,WeatherDisplay:10.37,2013-05-24 20:21:00,
2013-05-24 15:26:00,65.2,41.5,30.28,SSE,168,5.2,7.0,42,0.00,CLR,,0.00,316.0,WeatherDisplay:10.37,2013-05-24 20:26:00,
2013-05-24 15:31:00,65.9,42.1,30.28,South,184,4.6,7.0,42,0.00,CLR,,0.00,272.0,WeatherDisplay:10.37,2013-05-24 20:31:00,
2013-05-24 15:36:00,65.6,41.9,30.28,South,173,5.4,10.0,42,0.00,CLR,,0.00,308.0,WeatherDisplay:10.37,2013-05-24 20:36:00,
2013-05-24 15:41:00,65.8,42.7,30.28,West,281,3.9,8.1,43,0.00,CLR,,0.00,329.0,WeatherDisplay:10.37,2013-05-24 20:41:00,
2013-05-24 15:46:00,65.4,41.7,30.28,SSE,167,4.9,8.1,42,0.00,CLR,,0.00,325.0,WeatherDisplay:10.37,2013-05-24 20:46:00,
2013-05-24 15:51:00,65.2,42.7,30.28,SW,225,2.6,5.0,44,0.00,CLR,,0.00,278.0,WeatherDisplay:10.37,2013-05-24 20:51:00,
2013-05-24 15:56:00,65.5,42.4,30.29,West,267,2.2,4.0,43,0.00,CLR,,0.00,181.0,WeatherDisplay:10.37,2013-05-24 20:56:00,
2013-05-24 16:01:00,65.1,42.0,30.29,South,176,1.3,3.0,43,0.00,CLR,,0.00,141.0,WeatherDisplay:10.37,2013-05-24 21:01:00,
2013-05-24 16:06:00,64.9,43.0,30.29,SSE,161,1.8,5.0,45,0.00,CLR,,0.00,134.0,WeatherDisplay:10.37,2013-05-24 21:06:00,
2013-05-24 16:11:00,64.5,43.3,30.29,South,175,3.5,6.0,46,0.00,BKN,,0.00,142.0,WeatherDisplay:10.37,2013-05-24 21:11:00,
2013-05-24 16:16:00,64.5,43.3,30.29,South,173,2.3,4.0,46,0.00,BKN,,0.00,144.0,WeatherDisplay:10.37,2013-05-24 21:16:00,
2013-05-24 16:21:00,64.4,44.3,30.30,South,186,2.3,4.0,48,0.00,BKN,,0.00,134.0,WeatherDisplay:10.37,2013-05-24 21:21:00,
2013-05-24 16:26:00,64.0,43.4,30.30,South,170,1.9,3.5,47,0.00,BKN,,0.00,93.0,WeatherDisplay:10.37,2013-05-24 21:26:00,
2013-05-24 16:31:00,63.9,42.7,30.30,South,180,2.4,4.0,46,0.00,BKN,,0.00,70.0,WeatherDisplay:10.37,2013-05-24 21:31:00,
2013-05-24 16:36:00,64.0,42.8,30.30,South,188,1.3,3.5,46,0.00,BKN,,0.00,62.0,WeatherDisplay:10.37,2013-05-24 21:36:00,
2013-05-24 16:41:00,63.8,43.2,30.30,SSW,196,3.0,5.0,47,0.00,BKN,,0.00,74.0,WeatherDisplay:10.37,2013-05-24 21:41:00,
2013-05-24 16:47:00,63.8,43.7,30.30,SSW,195,1.7,4.0,48,0.00,BKN,,0.00,81.0,WeatherDisplay:10.37,2013-05-24 21:47:00,
2013-05-24 16:52:00,63.9,44.4,30.30,SSW,194,0.8,3.5,49,0.00,BKN,,0.00,86.0,WeatherDisplay:10.37,2013-05-24 21:52:00,
2013-05-24 16:57:00,63.8,44.3,30.30,South,175,0.1,1.0,49,0.00,BKN,,0.00,76.0,WeatherDisplay:10.37,2013-05-24 21:57:00,
2013-05-24 17:02:00,63.8,45.3,30.30,South,175,0.1,1.2,51,0.00,BKN,,0.00,74.0,WeatherDisplay:10.37,2013-05-24 22:02:00,
2013-05-24 17:07:00,63.8,43.2,30.30,SSE,162,2.6,3.5,47,0.00,BKN,,0.00,81.0,WeatherDisplay:10.37,2013-05-24 22:07:00,
2013-05-24 17:12:00,63.6,44.1,30.31,SSE,163,0.7,3.5,49,0.00,BKN,,0.00,83.0,WeatherDisplay:10.37,2013-05-24 22:12:00,
2013-05-24 17:17:00,63.6,44.1,30.31,South,186,2.2,4.0,49,0.00,BKN,,0.00,67.0,WeatherDisplay:10.37,2013-05-24 22:17:00,
2013-05-24 17:22:00,63.4,43.9,30.31,South,188,1.6,3.5,49,0.00,BKN,,0.00,56.0,WeatherDisplay:10.37,2013-05-24 22:22:00,
2013-05-24 17:27:00,63.4,44.9,30.30,South,188,0.4,2.3,51,0.00,BKN,,0.00,40.0,WeatherDisplay:10.37,2013-05-24 22:27:00,
2013-05-24 17:32:00,63.3,44.9,30.30,South,188,0.8,1.2,51,0.00,BKN,,0.00,32.0,WeatherDisplay:10.37,2013-05-24 22:32:00,
2013-05-24 17:37:00,63.2,44.2,30.29,South,188,2.4,5.0,50,0.00,BKN,,0.00,26.0,WeatherDisplay:10.37,2013-05-24 22:37:00,
2013-05-24 17:42:00,62.8,44.9,30.28,SSW,206,1.9,4.0,52,0.00,BKN,,0.00,23.0,WeatherDisplay:10.37,2013-05-24 22:42:00,
2013-05-24 17:47:00,62.3,49.1,30.28,SSW,207,0.2,2.3,62,0.00,BKN,,0.00,21.0,WeatherDisplay:10.37,2013-05-24 22:47:00,
2013-05-24 17:52:00,61.1,48.4,30.28,ESE,103,0.2,2.3,63,0.00,BKN,,0.00,19.0,WeatherDisplay:10.37,2013-05-24 22:52:00,
2013-05-24 17:57:00,59.1,50.1,30.27,ESE,104,0.0,1.0,72,0.01,RA,,0.01,19.0,WeatherDisplay:10.37,2013-05-24 22:57:00,
2013-05-24 18:02:00,58.0,50.8,30.27,ESE,104,0.0,1.2,77,0.01,RA,,0.01,19.0,WeatherDisplay:10.37,2013-05-24 23:02:00,
2013-05-24 18:07:00,57.3,51.5,30.27,ESE,119,0.2,3.5,81,0.02,RA,,0.02,18.0,WeatherDisplay:10.37,2013-05-24 23:07:00,
2013-05-24 18:12:00,56.7,51.9,30.26,ESE,120,0.0,0.0,84,0.02,RA,,0.02,16.0,WeatherDisplay:10.37,2013-05-24 23:12:00,
2013-05-24 18:17:00,56.0,51.6,30.26,ESE,120,0.0,0.0,85,0.03,RA,,0.03,14.0,WeatherDisplay:10.37,2013-05-24 23:17:00,
2013-05-24 18:22:00,55.2,51.4,30.25,ESE,120,0.0,0.0,87,0.04,RA,,0.04,14.0,WeatherDisplay:10.37,2013-05-24 23:22:00,
2013-05-24 18:27:00,54.9,50.8,30.25,ESE,120,0.3,1.2,86,0.05,RA,,0.05,16.0,WeatherDisplay:10.37,2013-05-24 23:27:00,
2013-05-24 18:32:00,54.7,51.2,30.24,ESE,120,0.2,1.2,88,0.06,RA,,0.06,18.0,WeatherDisplay:10.37,2013-05-24 23:32:00,
2013-05-24 18:37:00,54.7,51.2,30.24,ESE,120,0.0,1.2,88,0.06,RA,,0.06,18.0,WeatherDisplay:10.37,2013-05-24 23:37:00,
2013-05-24 18:42:00,54.5,51.3,30.24,SE,142,0.7,2.0,89,0.07,RA,,0.07,18.0,WeatherDisplay:10.37,2013-05-24 23:42:00,
2013-05-24 18:47:00,54.2,51.3,30.24,SE,142,0.0,1.2,90,0.09,RA,,0.09,18.0,WeatherDisplay:10.37,2013-05-24 23:47:00,
2013-05-24 18:52:00,54.2,51.3,30.25,SE,142,0.2,1.2,90,0.10,RA,,0.10,14.0,WeatherDisplay:10.37,2013-05-24 23:52:00,
2013-05-24 18:57:00,54.2,51.6,30.25,SE,142,0.0,0.0,91,0.10,RA,,0.11,12.0,WeatherDisplay:10.37,2013-05-24 23:57:00,
2013-05-24 19:02:00,53.9,51.3,30.25,SE,142,0.0,0.0,91,0.10,RA,,0.11,11.0,WeatherDisplay:10.37,2013-05-25 00:02:00,
2013-05-24 19:07:00,53.7,51.4,30.25,SE,142,0.0,0.0,92,0.09,-RA,,0.11,9.0,WeatherDisplay:10.37,2013-05-25 00:07:00,
2013-05-24 19:12:00,53.8,51.8,30.26,SE,142,0.0,0.0,93,0.10,-RA,,0.12,7.0,WeatherDisplay:10.37,2013-05-25 00:12:00,
2013-05-24 19:17:00,53.6,51.6,30.26,SE,142,0.0,0.0,93,0.09,-RA,,0.12,5.0,WeatherDisplay:10.37,2013-05-25 00:17:00,
2013-05-24 19:22:00,53.5,51.8,30.25,SE,142,0.2,1.2,94,0.09,-RA,,0.13,0.0,WeatherDisplay:10.37,2013-05-25 00:22:00,
2013-05-24 19:27:00,53.2,51.5,30.25,SSE,151,1.1,4.0,94,0.09,-RA,,0.14,0.0,WeatherDisplay:10.37,2013-05-25 00:27:00,
2013-05-24 19:32:00,53.1,51.7,30.24,SSE,153,0.5,2.3,95,0.09,-RA,,0.15,0.0,WeatherDisplay:10.37,2013-05-25 00:32:00,
2013-05-24 19:37:00,52.8,51.1,30.24,SSE,153,1.6,3.5,94,0.09,-RA,,0.15,0.0,WeatherDisplay:10.37,2013-05-25 00:37:00,
2013-05-24 19:42:00,53.1,51.4,30.25,SSE,165,1.8,5.0,94,0.09,-RA,,0.16,0.0,WeatherDisplay:10.37,2013-05-25 00:42:00,
2013-05-24 19:47:00,53.0,51.3,30.25,SSE,165,0.3,2.3,94,0.09,-RA,,0.18,0.0,WeatherDisplay:10.37,2013-05-25 00:47:00,
2013-05-24 19:52:00,52.9,51.2,30.25,SSE,165,0.2,1.2,94,0.08,-RA,,0.19,0.0,WeatherDisplay:10.37,2013-05-25 00:52:00,
2013-05-24 19:57:00,52.7,51.0,30.25,SSE,165,0.0,1.0,94,0.10,-RA,,0.21,0.0,WeatherDisplay:10.37,2013-05-25 00:57:00,
2013-05-24 20:02:00,52.6,51.2,30.25,SSE,164,1.4,2.3,95,0.11,-RA,,0.22,0.0,WeatherDisplay:10.37,2013-05-25 01:02:00,
2013-05-24 20:07:00,52.6,51.2,30.25,SSE,164,0.8,2.0,95,0.12,-RA,,0.23,0.0,WeatherDisplay:10.37,2013-05-25 01:07:00,
2013-05-24 20:12:00,52.5,51.4,30.25,SSE,168,0.6,2.3,96,0.13,-RA,,0.25,0.0,WeatherDisplay:10.37,2013-05-25 01:12:00,
2013-05-24 20:17:00,52.6,51.5,30.25,SSE,167,0.2,2.0,96,0.14,-RA,,0.26,0.0,WeatherDisplay:10.37,2013-05-25 01:17:00,
2013-05-24 20:22:00,52.5,51.4,30.25,SSE,167,0.6,3.5,96,0.14,-RA,,0.27,0.0,WeatherDisplay:10.37,2013-05-25 01:22:00,
2013-05-24 20:27:00,52.5,51.4,30.24,SW,235,1.2,3.5,96,0.14,-RA,,0.28,0.0,WeatherDisplay:10.37,2013-05-25 01:27:00,
2013-05-24 20:32:00,52.5,51.1,30.24,East,96,1.5,5.0,95,0.15,-RA,,0.29,0.0,WeatherDisplay:10.37,2013-05-25 01:32:00,
2013-05-24 20:37:00,52.4,51.0,30.24,ESE,118,2.8,5.0,95,0.15,-RA,,0.31,0.0,WeatherDisplay:10.37,2013-05-25 01:37:00,
2013-05-24 20:42:00,52.5,51.1,30.24,SSE,161,1.5,4.0,95,0.16,-RA,,0.32,0.0,WeatherDisplay:10.37,2013-05-25 01:42:00,
2013-05-24 20:47:00,52.6,51.2,30.24,ENE,59,1.8,3.5,95,0.16,-RA,,0.33,0.0,WeatherDisplay:10.37,2013-05-25 01:47:00,
2013-05-24 20:52:00,52.6,51.2,30.24,South,184,1.4,5.0,95,0.16,-RA,,0.35,0.0,WeatherDisplay:10.37,2013-05-25 01:52:00,
2013-05-24 20:57:00,52.6,51.2,30.23,SW,233,1.4,4.0,95,0.16,-RA,,0.36,0.0,WeatherDisplay:10.37,2013-05-25 01:57:00,
2013-05-24 21:02:00,52.6,51.2,30.23,SW,234,0.9,3.0,95,0.14,-RA,,0.36,0.0,WeatherDisplay:10.37,2013-05-25 02:02:00,
2013-05-24 21:07:00,52.6,51.2,30.24,SE,137,1.8,6.0,95,0.14,-RA,,0.38,0.0,WeatherDisplay:10.37,2013-05-25 02:07:00,
2013-05-24 21:12:00,52.7,51.3,30.24,South,190,1.2,2.3,95,0.14,-RA,,0.39,0.0,WeatherDisplay:10.37,2013-05-25 02:12:00,
2013-05-24 21:17:00,52.7,51.3,30.25,SSE,148,1.2,3.5,95,0.14,-RA,,0.40,0.0,WeatherDisplay:10.37,2013-05-25 02:17:00,
2013-05-24 21:22:00,52.8,51.4,30.25,SSE,148,0.1,1.2,95,0.14,-RA,,0.41,0.0,WeatherDisplay:10.37,2013-05-25 02:22:00,
2013-05-24 21:27:00,52.8,51.7,30.26,South,171,0.2,2.0,96,0.13,-RA,,0.41,0.0,WeatherDisplay:10.37,2013-05-25 02:27:00,
2013-05-24 21:32:00,52.7,51.6,30.26,South,178,1.1,3.5,96,0.13,-RA,,0.42,0.0,WeatherDisplay:10.37,2013-05-25 02:32:00,
2013-05-24 21:37:00,52.8,51.7,30.26,South,178,0.8,2.3,96,0.12,-RA,,0.43,0.0,WeatherDisplay:10.37,2013-05-25 02:37:00,
2013-05-24 21:42:00,52.8,51.7,30.26,South,178,1.3,3.5,96,0.12,-RA,,0.44,0.0,WeatherDisplay:10.37,2013-05-25 02:42:00,
2013-05-24 21:47:00,52.8,51.7,30.25,South,178,0.4,2.3,96,0.12,-RA,,0.47,0.0,WeatherDisplay:10.37,2013-05-25 02:47:00,
2013-05-24 21:52:00,52.7,51.6,30.26,SSW,202,3.0,6.0,96,0.12,-RA,,0.48,0.0,WeatherDisplay:10.37,2013-05-25 02:52:00,
2013-05-24 21:57:00,52.8,51.7,30.27,South,186,2.0,4.0,96,0.13,-RA,,0.49,0.0,WeatherDisplay:10.37,2013-05-25 02:57:00,
2013-05-24 22:02:00,52.8,51.7,30.27,SSW,199,2.1,4.6,96,0.13,-RA,,0.50,0.0,WeatherDisplay:10.37,2013-05-25 03:02:00,
2013-05-24 22:07:00,52.8,52.0,30.27,SSW,200,0.7,2.3,97,0.12,-RA,,0.51,0.0,WeatherDisplay:10.37,2013-05-25 03:07:00,
2013-05-24 22:12:00,52.8,52.0,30.28,South,177,0.9,3.5,97,0.13,-RA,,0.52,0.0,WeatherDisplay:10.37,2013-05-25 03:12:00,
2013-05-24 22:17:00,52.8,52.0,30.28,ENE,62,1.0,4.0,97,0.12,-RA,,0.52,0.0,WeatherDisplay:10.37,2013-05-25 03:17:00,
2013-05-24 22:22:00,52.9,52.1,30.28,ESE,123,0.0,2.0,97,0.12,-RA,,0.53,0.0,WeatherDisplay:10.37,2013-05-25 03:22:00,
2013-05-24 22:27:00,52.9,52.1,30.28,SE,146,1.3,4.6,97,0.14,-RA,,0.55,0.0,WeatherDisplay:10.37,2013-05-25 03:27:00,
2013-05-24 22:32:00,52.8,52.0,30.28,SE,136,2.3,3.5,97,0.15,-RA,,0.57,0.0,WeatherDisplay:10.37,2013-05-25 03:32:00,
2013-05-24 22:37:00,52.8,52.0,30.28,South,172,1.0,4.0,97,0.15,-RA,,0.58,0.0,WeatherDisplay:10.37,2013-05-25 03:37:00,
2013-05-24 22:42:00,52.9,52.1,30.28,South,173,1.0,4.0,97,0.16,-RA,,0.60,0.0,WeatherDisplay:10.37,2013-05-25 03:42:00,
2013-05-24 22:47:00,52.9,52.1,30.28,South,181,0.7,3.5,97,0.15,-RA,,0.61,0.0,WeatherDisplay:10.37,2013-05-25 03:47:00,
2013-05-24 22:52:00,52.9,52.1,30.28,ESE,111,0.9,3.5,97,0.15,-RA,,0.62,0.0,WeatherDisplay:10.37,2013-05-25 03:52:00,
2013-05-24 22:57:00,52.9,52.1,30.28,SSW,197,1.2,3.5,97,0.13,-RA,,0.62,0.0,WeatherDisplay:10.37,2013-05-25 03:57:00,
2013-05-24 23:02:00,52.9,52.1,30.28,South,188,0.9,2.3,97,0.13,-RA,,0.63,0.0,WeatherDisplay:10.37,2013-05-25 04:02:00,
2013-05-24 23:03:00,52.9,52.1,30.28,South,190,0.6,2.3,97,0.13,-RA,,0.63,0.0,WeatherDisplay:10.37,2013-05-25 04:03:00,
2013-05-24 23:04:00,52.9,52.1,30.28,South,190,0.5,3.0,97,0.13,-RA,,0.63,0.0,WeatherDisplay:10.37,2013-05-25 04:04:00,
2013-05-24 23:06:00,52.9,52.1,30.28,NNE,32,1.1,5.0,97,0.13,-RA,,0.63,0.0,WeatherDisplay:10.37,2013-05-25 04:06:00,
2013-05-24 23:07:00,52.9,52.1,30.28,SSE,149,2.6,4.6,97,0.13,RA,,0.63,0.0,WeatherDisplay:10.37,2013-05-25 04:07:00,
2013-05-24 23:12:00,52.9,52.1,30.27,SE,145,1.9,4.0,97,0.11,OVC,,0.63,0.0,WeatherDisplay:10.37,2013-05-25 04:12:00,
2013-05-24 23:17:00,52.9,52.1,30.27,SSW,211,2.5,6.0,97,0.11,OVC,,0.63,0.0,WeatherDisplay:10.37,2013-05-25 04:17:00,
2013-05-24 23:22:00,52.9,52.1,30.27,ESE,122,1.1,3.0,97,0.10,OVC,,0.63,0.0,WeatherDisplay:10.37,2013-05-25 04:22:00,
2013-05-24 23:27:00,52.9,52.1,30.26,South,178,1.4,6.0,97,0.07,OVC,,0.63,0.0,WeatherDisplay:10.37,2013-05-25 04:27:00,
2013-05-24 23:32:00,52.9,52.1,30.26,ENE,76,1.3,6.0,97,0.07,OVC,,0.63,0.0,WeatherDisplay:10.37,2013-05-25 04:32:00,
2013-05-24 23:37:00,52.9,52.1,30.27,South,169,2.8,5.0,97,0.06,OVC,,0.63,0.0,WeatherDisplay:10.37,2013-05-25 04:37:00,
2013-05-24 23:42:00,52.9,52.1,30.27,South,190,0.7,2.3,97,0.03,OVC,,0.63,0.0,WeatherDisplay:10.37,2013-05-25 04:42:00,
2013-05-24 23:47:00,52.9,52.1,30.27,South,169,1.7,6.0,97,0.02,OVC,,0.63,0.0,WeatherDisplay:10.37,2013-05-25 04:47:00,
2013-05-24 23:52:00,52.9,52.1,30.27,SSW,213,1.6,3.5,97,0.01,OVC,,0.63,0.0,WeatherDisplay:10.37,2013-05-25 04:52:00,
2013-05-24 23:57:00,52.8,52.0,30.27,SSE,163,1.1,5.8,97,0.01,OVC,,0.63,0.0,WeatherDisplay:10.37,2013-05-25 04:57:00,